sensor_id;sensor_type;location;lat;lon;timestamp;temperature;humidity
42147;DHT22;27815;43.410;11.852;2023-04-24T00:20:35;15.20;57.80
42147;DHT22;27815;43.410;11.852;2023-04-24T00:44:55;14.90;61.70
42147;DHT22;27815;43.410;11.852;2023-04-24T00:49:07;14.90;62.20
42147;DHT22;27815;43.410;11.852;2023-04-24T00:57:44;15.00;62.60
42147;DHT22;27815;43.410;11.852;2023-04-24T01:06:20;15.00;63.40
42147;DHT22;27815;43.410;11.852;2023-04-24T01:10:29;14.90;63.40
42147;DHT22;27815;43.410;11.852;2023-04-24T01:23:57;14.90;65.00
42147;DHT22;27815;43.410;11.852;2023-04-24T01:56:32;14.90;70.10
42147;DHT22;27815;43.410;11.852;2023-04-24T02:53:57;14.80;73.80
42147;DHT22;27815;43.410;11.852;2023-04-24T03:02:30;14.80;74.30
42147;DHT22;27815;43.410;11.852;2023-04-24T03:11:07;14.80;74.50
42147;DHT22;27815;43.410;11.852;2023-04-24T03:35:18;14.80;74.90
42147;DHT22;27815;43.410;11.852;2023-04-24T03:39:22;14.80;75.10
42147;DHT22;27815;43.410;11.852;2023-04-24T03:43:33;14.80;75.20
42147;DHT22;27815;43.410;11.852;2023-04-24T03:47:42;14.80;75.20
42147;DHT22;27815;43.410;11.852;2023-04-24T03:56:15;14.80;75.20
42147;DHT22;27815;43.410;11.852;2023-04-24T04:00:23;14.80;75.40
42147;DHT22;27815;43.410;11.852;2023-04-24T04:23:47;14.70;75.50
42147;DHT22;27815;43.410;11.852;2023-04-24T04:28:04;14.70;75.70
42147;DHT22;27815;43.410;11.852;2023-04-24T04:36:42;14.70;75.90
42147;DHT22;27815;43.410;11.852;2023-04-24T05:00:47;14.80;76.10
42147;DHT22;27815;43.410;11.852;2023-04-24T05:10:26;14.80;75.90
42147;DHT22;27815;43.410;11.852;2023-04-24T05:14:34;14.90;75.70
42147;DHT22;27815;43.410;11.852;2023-04-24T05:18:44;14.90;75.60
42147;DHT22;27815;43.410;11.852;2023-04-24T05:27:52;15.00;75.30
42147;DHT22;27815;43.410;11.852;2023-04-24T05:41:52;15.00;75.00
42147;DHT22;27815;43.410;11.852;2023-04-24T05:50:26;15.10;75.20
42147;DHT22;27815;43.410;11.852;2023-04-24T05:59:06;15.10;75.20
42147;DHT22;27815;43.410;11.852;2023-04-24T06:03:10;15.20;75.10
42147;DHT22;27815;43.410;11.852;2023-04-24T06:07:16;15.10;75.00
42147;DHT22;27815;43.410;11.852;2023-04-24T06:11:26;15.20;74.90
42147;DHT22;27815;43.410;11.852;2023-04-24T06:15:35;15.20;74.80
42147;DHT22;27815;43.410;11.852;2023-04-24T06:19:51;15.30;74.60
42147;DHT22;27815;43.410;11.852;2023-04-24T06:28:29;15.40;74.30
42147;DHT22;27815;43.410;11.852;2023-04-24T06:32:35;15.50;74.10
42147;DHT22;27815;43.410;11.852;2023-04-24T06:36:41;15.50;73.90
42147;DHT22;27815;43.410;11.852;2023-04-24T07:56:26;16.60;65.40
42147;DHT22;27815;43.410;11.852;2023-04-24T08:23:45;16.00;63.90
42147;DHT22;27815;43.410;11.852;2023-04-24T08:44:26;16.60;63.50
42147;DHT22;27815;43.410;11.852;2023-04-24T08:53:31;17.30;61.80
42147;DHT22;27815;43.410;11.852;2023-04-24T08:57:37;17.00;63.00
42147;DHT22;27815;43.410;11.852;2023-04-24T09:08:13;16.60;64.10
42147;DHT22;27815;43.410;11.852;2023-04-24T09:27:36;18.00;60.80
42147;DHT22;27815;43.410;11.852;2023-04-24T09:31:43;18.30;59.70
42147;DHT22;27815;43.410;11.852;2023-04-24T09:40:21;18.40;58.10
42147;DHT22;27815;43.410;11.852;2023-04-24T09:54:54;18.70;55.90
42147;DHT22;27815;43.410;11.852;2023-04-24T10:15:49;18.60;54.10
42147;DHT22;27815;43.410;11.852;2023-04-24T10:42:24;18.50;53.20
42147;DHT22;27815;43.410;11.852;2023-04-24T11:38:34;19.00;50.80
42147;DHT22;27815;43.410;11.852;2023-04-24T12:04:16;19.20;51.80
42147;DHT22;27815;43.410;11.852;2023-04-24T12:08:31;19.40;51.80
42147;DHT22;27815;43.410;11.852;2023-04-24T12:49:34;20.30;51.10
42147;DHT22;27815;43.410;11.852;2023-04-24T13:08:30;21.10;49.30
42147;DHT22;27815;43.410;11.852;2023-04-24T13:30:33;20.50;48.50
42147;DHT22;27815;43.410;11.852;2023-04-24T13:34:45;20.60;48.90
42147;DHT22;27815;43.410;11.852;2023-04-24T13:38:54;20.80;48.80
42147;DHT22;27815;43.410;11.852;2023-04-24T13:43:02;20.90;48.70
42147;DHT22;27815;43.410;11.852;2023-04-24T13:47:10;21.00;48.30
42147;DHT22;27815;43.410;11.852;2023-04-24T13:51:23;21.10;47.90
42147;DHT22;27815;43.410;11.852;2023-04-24T13:55:29;21.10;47.80
42147;DHT22;27815;43.410;11.852;2023-04-24T13:59:31;21.10;47.50
42147;DHT22;27815;43.410;11.852;2023-04-24T14:03:36;21.30;47.60
42147;DHT22;27815;43.410;11.852;2023-04-24T14:07:40;21.50;47.10
42147;DHT22;27815;43.410;11.852;2023-04-24T14:11:43;21.50;46.30
42147;DHT22;27815;43.410;11.852;2023-04-24T14:15:46;21.60;45.90
42147;DHT22;27815;43.410;11.852;2023-04-24T14:19:48;21.50;45.80
42147;DHT22;27815;43.410;11.852;2023-04-24T14:23:51;21.60;46.20
42147;DHT22;27815;43.410;11.852;2023-04-24T14:27:53;22.00;46.20
42147;DHT22;27815;43.410;11.852;2023-04-24T14:31:56;21.90;45.90
42147;DHT22;27815;43.410;11.852;2023-04-24T14:35:58;21.70;45.40
42147;DHT22;27815;43.410;11.852;2023-04-24T14:40:01;21.50;45.20
42147;DHT22;27815;43.410;11.852;2023-04-24T14:44:24;21.50;44.80
42147;DHT22;27815;43.410;11.852;2023-04-24T14:48:29;21.70;44.40
42147;DHT22;27815;43.410;11.852;2023-04-24T14:52:32;21.80;45.00
42147;DHT22;27815;43.410;11.852;2023-04-24T14:56:38;21.70;45.30
42147;DHT22;27815;43.410;11.852;2023-04-24T15:00:52;21.40;45.30
42147;DHT22;27815;43.410;11.852;2023-04-24T15:05:02;21.40;45.00
42147;DHT22;27815;43.410;11.852;2023-04-24T15:09:08;21.20;45.00
42147;DHT22;27815;43.410;11.852;2023-04-24T15:13:14;21.00;45.20
42147;DHT22;27815;43.410;11.852;2023-04-24T15:17:36;20.90;45.60
42147;DHT22;27815;43.410;11.852;2023-04-24T15:21:39;20.90;46.60
42147;DHT22;27815;43.410;11.852;2023-04-24T15:25:43;21.00;47.00
42147;DHT22;27815;43.410;11.852;2023-04-24T15:29:47;20.70;47.10
42147;DHT22;27815;43.410;11.852;2023-04-24T15:33:49;20.50;47.80
42147;DHT22;27815;43.410;11.852;2023-04-24T15:37:52;20.30;48.50
42147;DHT22;27815;43.410;11.852;2023-04-24T15:41:55;20.50;48.90
42147;DHT22;27815;43.410;11.852;2023-04-24T15:45:59;20.50;48.90
42147;DHT22;27815;43.410;11.852;2023-04-24T15:50:03;20.40;49.10
42147;DHT22;27815;43.410;11.852;2023-04-24T15:54:18;20.50;49.10
42147;DHT22;27815;43.410;11.852;2023-04-24T15:58:22;20.50;48.80
42147;DHT22;27815;43.410;11.852;2023-04-24T16:02:26;20.40;49.00
42147;DHT22;27815;43.410;11.852;2023-04-24T16:06:29;20.20;49.70
42147;DHT22;27815;43.410;11.852;2023-04-24T16:10:32;20.50;49.40
42147;DHT22;27815;43.410;11.852;2023-04-24T16:14:35;20.80;49.30
42147;DHT22;27815;43.410;11.852;2023-04-24T16:18:38;21.30;48.60
42147;DHT22;27815;43.410;11.852;2023-04-24T16:22:40;22.10;47.40
42147;DHT22;27815;43.410;11.852;2023-04-24T16:26:43;22.80;46.50
42147;DHT22;27815;43.410;11.852;2023-04-24T16:30:45;23.30;44.80
42147;DHT22;27815;43.410;11.852;2023-04-24T16:34:48;23.00;45.20
42147;DHT22;27815;43.410;11.852;2023-04-24T16:38:57;22.70;44.40
42147;DHT22;27815;43.410;11.852;2023-04-24T16:43:03;23.00;43.40
42147;DHT22;27815;43.410;11.852;2023-04-24T16:47:06;23.80;43.20
42147;DHT22;27815;43.410;11.852;2023-04-24T16:51:12;24.00;42.40
42147;DHT22;27815;43.410;11.852;2023-04-24T16:55:15;23.40;42.50
42147;DHT22;27815;43.410;11.852;2023-04-24T16:59:25;22.60;43.50
42147;DHT22;27815;43.410;11.852;2023-04-24T17:03:35;22.00;44.00
42147;DHT22;27815;43.410;11.852;2023-04-24T17:07:40;21.90;44.40
42147;DHT22;27815;43.410;11.852;2023-04-24T17:11:43;22.50;44.00
42147;DHT22;27815;43.410;11.852;2023-04-24T17:15:46;23.10;43.50
42147;DHT22;27815;43.410;11.852;2023-04-24T17:19:48;23.80;43.10
42147;DHT22;27815;43.410;11.852;2023-04-24T17:23:54;24.20;42.80
42147;DHT22;27815;43.410;11.852;2023-04-24T17:28:10;24.00;42.90
42147;DHT22;27815;43.410;11.852;2023-04-24T17:32:17;24.00;43.00
42147;DHT22;27815;43.410;11.852;2023-04-24T17:36:20;23.90;43.10
42147;DHT22;27815;43.410;11.852;2023-04-24T17:40:23;23.10;43.90
42147;DHT22;27815;43.410;11.852;2023-04-24T17:44:26;22.60;44.50
42147;DHT22;27815;43.410;11.852;2023-04-24T17:48:29;22.00;45.30
42147;DHT22;27815;43.410;11.852;2023-04-24T17:52:32;21.50;46.00
42147;DHT22;27815;43.410;11.852;2023-04-24T17:56:36;20.90;46.50
42147;DHT22;27815;43.410;11.852;2023-04-24T18:00:40;20.50;46.80
42147;DHT22;27815;43.410;11.852;2023-04-24T18:04:46;20.00;47.30
42147;DHT22;27815;43.410;11.852;2023-04-24T18:08:52;19.50;47.90
42147;DHT22;27815;43.410;11.852;2023-04-24T18:12:54;19.00;48.50
42147;DHT22;27815;43.410;11.852;2023-04-24T18:17:11;18.50;49.20
42147;DHT22;27815;43.410;11.852;2023-04-24T18:21:21;18.20;50.00
42147;DHT22;27815;43.410;11.852;2023-04-24T18:25:26;17.80;50.60
42147;DHT22;27815;43.410;11.852;2023-04-24T18:29:34;17.50;51.10
42147;DHT22;27815;43.410;11.852;2023-04-24T18:33:37;17.20;52.50
42147;DHT22;27815;43.410;11.852;2023-04-24T18:37:40;17.00;53.70
42147;DHT22;27815;43.410;11.852;2023-04-24T18:41:45;16.80;55.10
42147;DHT22;27815;43.410;11.852;2023-04-24T18:45:47;16.70;55.30
42147;DHT22;27815;43.410;11.852;2023-04-24T18:50:05;16.70;55.90
42147;DHT22;27815;43.410;11.852;2023-04-24T18:54:14;16.50;56.40
42147;DHT22;27815;43.410;11.852;2023-04-24T18:58:21;16.50;57.20
42147;DHT22;27815;43.410;11.852;2023-04-24T19:02:31;16.40;57.50
42147;DHT22;27815;43.410;11.852;2023-04-24T19:06:34;16.30;57.80
42147;DHT22;27815;43.410;11.852;2023-04-24T19:10:38;16.30;58.30
42147;DHT22;27815;43.410;11.852;2023-04-24T19:14:44;16.30;58.60
42147;DHT22;27815;43.410;11.852;2023-04-24T19:18:50;16.20;58.20
42147;DHT22;27815;43.410;11.852;2023-04-24T19:22:52;16.10;57.80
42147;DHT22;27815;43.410;11.852;2023-04-24T19:26:55;16.20;57.60
42147;DHT22;27815;43.410;11.852;2023-04-24T19:30:59;16.10;57.70
42147;DHT22;27815;43.410;11.852;2023-04-24T19:35:07;16.00;58.40
42147;DHT22;27815;43.410;11.852;2023-04-24T19:39:15;15.90;59.20
42147;DHT22;27815;43.410;11.852;2023-04-24T19:43:19;15.60;59.70
42147;DHT22;27815;43.410;11.852;2023-04-24T19:47:26;15.50;59.90
42147;DHT22;27815;43.410;11.852;2023-04-24T19:51:28;15.40;60.30
42147;DHT22;27815;43.410;11.852;2023-04-24T19:55:33;15.40;60.60
42147;DHT22;27815;43.410;11.852;2023-04-24T19:59:36;15.30;60.80
42147;DHT22;27815;43.410;11.852;2023-04-24T20:03:38;15.30;60.80
42147;DHT22;27815;43.410;11.852;2023-04-24T20:07:54;15.30;60.40
42147;DHT22;27815;43.410;11.852;2023-04-24T20:12:07;15.30;60.70
42147;DHT22;27815;43.410;11.852;2023-04-24T20:16:11;15.30;60.70
42147;DHT22;27815;43.410;11.852;2023-04-24T20:20:24;15.10;60.80
42147;DHT22;27815;43.410;11.852;2023-04-24T20:24:27;15.10;60.90
42147;DHT22;27815;43.410;11.852;2023-04-24T20:28:29;15.00;61.10
42147;DHT22;27815;43.410;11.852;2023-04-24T20:32:32;15.00;61.00
42147;DHT22;27815;43.410;11.852;2023-04-24T20:36:43;14.90;61.00
42147;DHT22;27815;43.410;11.852;2023-04-24T20:40:51;14.80;61.30
42147;DHT22;27815;43.410;11.852;2023-04-24T20:44:57;14.70;61.90
42147;DHT22;27815;43.410;11.852;2023-04-24T20:49:00;14.50;61.60
42147;DHT22;27815;43.410;11.852;2023-04-24T20:53:05;14.50;61.70
42147;DHT22;27815;43.410;11.852;2023-04-24T20:57:09;14.40;61.60
42147;DHT22;27815;43.410;11.852;2023-04-24T21:01:12;14.30;61.60
42147;DHT22;27815;43.410;11.852;2023-04-24T21:05:19;14.20;61.80
42147;DHT22;27815;43.410;11.852;2023-04-24T21:09:24;14.10;61.90
42147;DHT22;27815;43.410;11.852;2023-04-24T21:13:28;14.10;62.00
42147;DHT22;27815;43.410;11.852;2023-04-24T21:17:31;13.90;62.60
42147;DHT22;27815;43.410;11.852;2023-04-24T21:21:34;13.60;63.40
42147;DHT22;27815;43.410;11.852;2023-04-24T21:25:44;13.50;64.00
42147;DHT22;27815;43.410;11.852;2023-04-24T21:29:53;13.40;64.50
42147;DHT22;27815;43.410;11.852;2023-04-24T21:33:57;13.30;65.10
42147;DHT22;27815;43.410;11.852;2023-04-24T21:38:04;13.20;65.30
42147;DHT22;27815;43.410;11.852;2023-04-24T21:42:09;13.30;64.70
42147;DHT22;27815;43.410;11.852;2023-04-24T21:46:12;13.30;64.50
42147;DHT22;27815;43.410;11.852;2023-04-24T21:50:15;13.30;64.40
42147;DHT22;27815;43.410;11.852;2023-04-24T21:54:18;13.20;64.80
42147;DHT22;27815;43.410;11.852;2023-04-24T21:58:21;13.10;64.80
42147;DHT22;27815;43.410;11.852;2023-04-24T22:02:24;13.00;65.80
42147;DHT22;27815;43.410;11.852;2023-04-24T22:06:35;13.00;66.20
42147;DHT22;27815;43.410;11.852;2023-04-24T22:10:39;13.10;65.80
42147;DHT22;27815;43.410;11.852;2023-04-24T22:14:42;13.20;65.80
42147;DHT22;27815;43.410;11.852;2023-04-24T22:18:46;13.20;65.70
42147;DHT22;27815;43.410;11.852;2023-04-24T22:22:51;13.30;65.40
42147;DHT22;27815;43.410;11.852;2023-04-24T22:26:55;13.40;65.20
42147;DHT22;27815;43.410;11.852;2023-04-24T22:30:58;13.40;65.00
42147;DHT22;27815;43.410;11.852;2023-04-24T22:35:01;13.40;64.80
42147;DHT22;27815;43.410;11.852;2023-04-24T22:39:04;13.30;65.10
42147;DHT22;27815;43.410;11.852;2023-04-24T22:43:07;13.30;65.40
42147;DHT22;27815;43.410;11.852;2023-04-24T22:47:11;13.40;65.10
42147;DHT22;27815;43.410;11.852;2023-04-24T22:51:16;13.50;65.00
42147;DHT22;27815;43.410;11.852;2023-04-24T22:55:21;13.50;64.90
42147;DHT22;27815;43.410;11.852;2023-04-24T22:59:25;13.60;64.70
42147;DHT22;27815;43.410;11.852;2023-04-24T23:03:28;13.70;64.70
42147;DHT22;27815;43.410;11.852;2023-04-24T23:07:31;13.80;64.50
42147;DHT22;27815;43.410;11.852;2023-04-24T23:11:34;13.90;64.40
42147;DHT22;27815;43.410;11.852;2023-04-24T23:15:37;13.90;64.50
42147;DHT22;27815;43.410;11.852;2023-04-24T23:19:40;14.00;64.40
42147;DHT22;27815;43.410;11.852;2023-04-24T23:23:43;14.00;64.40
42147;DHT22;27815;43.410;11.852;2023-04-24T23:27:45;14.10;64.30
42147;DHT22;27815;43.410;11.852;2023-04-24T23:31:49;14.10;64.10
42147;DHT22;27815;43.410;11.852;2023-04-24T23:35:53;14.10;64.10
42147;DHT22;27815;43.410;11.852;2023-04-24T23:39:57;14.10;64.10
42147;DHT22;27815;43.410;11.852;2023-04-24T23:44:05;14.20;64.00
42147;DHT22;27815;43.410;11.852;2023-04-24T23:48:07;14.20;63.90
42147;DHT22;27815;43.410;11.852;2023-04-24T23:52:11;14.20;63.80
42147;DHT22;27815;43.410;11.852;2023-04-24T23:56:16;14.30;63.60
